createdAt,value
2018-11-10T00:01:01.315Z,13.13
2018-11-10T00:03:43.975Z,13.90
2018-11-10T00:05:07.607Z,15.10
2018-11-10T00:07:34.611Z,15.35
2018-11-10T00:08:44.993Z,15.78
2018-11-10T00:09:54.754Z,16.20
2018-11-10T00:11:04.244Z,16.95
2018-11-10T00:12:14.113Z,14.93
2018-11-10T00:13:23.765Z,15.15
2018-11-10T00:14:33.457Z,15.65
2018-11-10T00:15:42.857Z,15.23
2018-11-10T00:16:52.483Z,15.70
2018-11-10T00:18:02.049Z,14.78
2018-11-10T00:19:11.737Z,15.20
2018-11-10T00:20:21.425Z,11.95
2018-11-10T00:21:31.178Z,14.33
2018-11-10T00:22:41.679Z,13.98
2018-11-10T00:23:51.266Z,15.93
2018-11-10T00:25:03.626Z,15.05
2018-11-10T00:26:13.399Z,12.80
2018-11-10T00:27:23.040Z,13.75
2018-11-10T00:28:32.741Z,13.78
2018-11-10T00:29:42.521Z,13.28
2018-11-10T00:30:52.042Z,13.75
2018-11-10T00:32:01.685Z,14.18
2018-11-10T00:33:11.428Z,14.55
2018-11-10T00:34:21.667Z,12.82
2018-11-10T00:35:31.382Z,11.97
2018-11-10T00:36:40.922Z,13.20
2018-11-10T00:37:50.429Z,12.50
2018-11-10T00:39:00.742Z,12.50
2018-11-10T00:40:13.114Z,12.53
2018-11-10T00:41:22.659Z,12.23
2018-11-10T00:42:33.256Z,13.28
2018-11-10T00:43:42.832Z,14.10
2018-11-10T00:44:52.405Z,12.75
2018-11-10T00:46:01.920Z,13.03
2018-11-10T00:47:11.444Z,11.60
2018-11-10T00:48:21.150Z,12.25
2018-11-10T00:49:30.768Z,12.68
2018-11-10T00:50:40.246Z,14.70
2018-11-10T00:51:49.912Z,11.35
2018-11-10T00:52:59.714Z,13.10
2018-11-10T00:54:09.482Z,13.13
2018-11-10T00:55:19.153Z,12.78
2018-11-10T00:56:28.744Z,12.33
2018-11-10T00:57:38.378Z,13.30
2018-11-10T00:58:48.106Z,12.35
2018-11-10T00:59:57.887Z,11.75
2018-11-10T01:01:07.526Z,14.05
2018-11-10T01:02:16.918Z,12.53
2018-11-10T01:03:26.588Z,10.82
2018-11-10T01:04:36.289Z,12.80
2018-11-10T01:05:45.705Z,12.07
2018-11-10T01:06:55.464Z,12.13
2018-11-10T01:08:05.832Z,11.05
2018-11-10T01:09:15.468Z,11.60
2018-11-10T01:10:25.223Z,11.18
2018-11-10T01:11:34.802Z,11.88
2018-11-10T01:12:44.311Z,14.75
2018-11-10T01:13:53.930Z,11.53
2018-11-10T01:15:03.720Z,11.70
2018-11-10T01:16:13.487Z,11.28
2018-11-10T01:17:23.283Z,12.00
2018-11-10T01:18:33.219Z,12.07
2018-11-10T01:19:43.207Z,12.65
2018-11-10T01:20:53.011Z,11.48
2018-11-10T01:22:02.897Z,12.45
2018-11-10T01:23:12.987Z,12.70
2018-11-10T01:24:22.670Z,13.25
2018-11-10T01:25:35.765Z,12.98
2018-11-10T01:26:45.409Z,10.35
2018-11-10T01:27:55.416Z,12.88
2018-11-10T01:29:05.999Z,12.98
2018-11-10T01:30:16.706Z,11.65
2018-11-10T01:31:26.943Z,11.63
2018-11-10T01:32:36.800Z,11.33
2018-11-10T01:33:46.631Z,12.13
2018-11-10T01:34:56.430Z,11.65
2018-11-10T01:36:06.575Z,10.55
2018-11-10T01:37:16.120Z,11.08
2018-11-10T01:38:25.720Z,11.73
2018-11-10T01:39:35.456Z,12.93
2018-11-10T01:40:45.191Z,12.82
2018-11-10T01:41:54.741Z,12.07
2018-11-10T01:43:04.440Z,11.75
2018-11-10T01:44:14.126Z,11.88
2018-11-10T01:45:23.658Z,12.60
2018-11-10T01:46:33.159Z,12.18
2018-11-10T01:47:43.549Z,11.70
2018-11-10T01:48:53.781Z,12.95
2018-11-10T01:50:03.536Z,11.35
2018-11-10T01:51:13.155Z,10.98
2018-11-10T01:52:22.729Z,11.28
2018-11-10T01:53:32.210Z,11.53
2018-11-10T01:54:41.964Z,11.70
2018-11-10T01:55:51.530Z,10.85
2018-11-10T01:57:01.315Z,10.20
2018-11-10T01:58:10.854Z,12.45
2018-11-10T01:59:20.672Z,11.93
2018-11-10T02:00:30.319Z,10.60
2018-11-10T02:01:39.976Z,10.95
2018-11-10T02:02:49.672Z,10.30
2018-11-10T02:03:59.403Z,12.25
2018-11-10T02:05:09.093Z,11.50
2018-11-10T02:06:18.710Z,12.20
2018-11-10T02:07:28.298Z,11.68
2018-11-10T02:08:37.893Z,11.63
2018-11-10T02:09:47.573Z,10.90
2018-11-10T02:10:57.064Z,10.93
2018-11-10T02:12:10.137Z,11.50
2018-11-10T02:13:20.029Z,11.55
2018-11-10T02:14:29.918Z,12.50
2018-11-10T02:15:39.634Z,11.40
2018-11-10T02:16:49.516Z,13.53
2018-11-10T02:17:59.486Z,11.40
2018-11-10T02:19:09.528Z,12.75
2018-11-10T02:20:19.266Z,11.85
2018-11-10T02:21:29.251Z,11.78
2018-11-10T02:22:39.497Z,11.83
2018-11-10T02:23:49.457Z,11.73
2018-11-10T02:24:59.124Z,11.88
2018-11-10T02:26:09.153Z,11.90
2018-11-10T02:27:24.117Z,10.35
2018-11-10T02:28:34.049Z,12.00
2018-11-10T02:29:43.927Z,10.35
2018-11-10T02:30:53.866Z,10.08
2018-11-10T02:32:03.691Z,11.45
2018-11-10T02:33:13.385Z,13.15
2018-11-10T02:34:23.346Z,10.25
2018-11-10T02:35:33.525Z,11.38
2018-11-10T02:36:43.405Z,12.75
2018-11-10T02:37:53.525Z,11.73
2018-11-10T02:39:03.868Z,11.28
2018-11-10T02:40:14.905Z,11.15
2018-11-10T02:41:24.814Z,12.07
2018-11-10T02:42:34.513Z,10.28
2018-11-10T02:43:44.591Z,10.98
2018-11-10T02:44:54.504Z,10.85
2018-11-10T02:46:04.343Z,10.20
2018-11-10T02:47:14.395Z,10.40
2018-11-10T02:48:24.416Z,11.28
2018-11-10T02:49:34.122Z,11.35
2018-11-10T02:50:43.915Z,11.90
2018-11-10T02:51:53.836Z,10.40
2018-11-10T02:53:03.747Z,10.28
2018-11-10T02:54:13.688Z,10.03
2018-11-10T02:55:23.577Z,10.30
2018-11-10T02:56:33.839Z,12.23
2018-11-10T02:57:43.943Z,11.60
2018-11-10T02:58:54.032Z,11.03
2018-11-10T03:00:03.816Z,11.65
2018-11-10T03:01:13.585Z,9.93
2018-11-10T03:02:23.573Z,11.12
2018-11-10T03:03:33.674Z,10.13
2018-11-10T03:04:43.551Z,10.38
2018-11-10T03:05:53.425Z,8.85
2018-11-10T03:07:03.653Z,10.65
2018-11-10T03:08:13.727Z,11.10
2018-11-10T03:09:23.714Z,12.10
2018-11-10T03:10:33.466Z,9.98
2018-11-10T03:11:43.245Z,11.88
2018-11-10T03:12:53.220Z,9.83
2018-11-10T03:14:03.335Z,10.08
2018-11-10T03:15:13.467Z,10.95
2018-11-10T03:16:23.534Z,12.53
2018-11-10T03:17:33.345Z,11.83
2018-11-10T03:18:43.334Z,10.08
2018-11-10T03:19:53.653Z,11.00
2018-11-10T03:21:03.448Z,10.35
2018-11-10T03:22:13.233Z,10.23
2018-11-10T03:23:22.971Z,10.35
2018-11-10T03:24:32.887Z,10.40
2018-11-10T03:25:42.803Z,9.55
2018-11-10T03:26:52.683Z,9.65
2018-11-10T03:28:02.677Z,11.03
2018-11-10T03:29:12.432Z,10.10
2018-11-10T03:30:22.407Z,9.98
2018-11-10T03:31:32.392Z,10.50
2018-11-10T03:32:42.278Z,9.95
2018-11-10T03:33:52.184Z,11.22
2018-11-10T03:35:02.140Z,12.13
2018-11-10T03:36:12.220Z,9.20
2018-11-10T03:37:22.170Z,9.93
2018-11-10T03:38:32.092Z,9.33
2018-11-10T03:39:41.898Z,9.20
2018-11-10T03:40:51.707Z,8.83
2018-11-10T03:42:01.636Z,10.05
2018-11-10T03:43:11.414Z,8.75
2018-11-10T03:44:21.284Z,9.68
2018-11-10T03:45:31.053Z,9.65
2018-11-10T03:46:40.850Z,10.00
2018-11-10T03:47:50.901Z,9.80
2018-11-10T03:49:01.029Z,10.28
2018-11-10T03:50:11.620Z,10.10
2018-11-10T03:51:21.551Z,11.40
2018-11-10T03:52:31.351Z,11.73
2018-11-10T03:53:41.499Z,10.15
2018-11-10T03:54:51.390Z,11.00
2018-11-10T03:56:01.167Z,9.83
2018-11-10T03:57:11.032Z,11.60
2018-11-10T03:58:21.110Z,9.90
2018-11-10T03:59:31.334Z,9.58
2018-11-10T04:00:41.091Z,9.50
2018-11-10T04:01:50.909Z,9.53
2018-11-10T04:03:00.776Z,9.53
2018-11-10T04:04:10.934Z,9.08
2018-11-10T04:05:20.605Z,10.53
2018-11-10T04:06:30.740Z,8.95
2018-11-10T04:07:41.687Z,9.95
2018-11-10T04:08:51.770Z,10.60
2018-11-10T04:10:01.690Z,10.48
2018-11-10T04:11:11.193Z,10.63
2018-11-10T04:12:21.131Z,9.70
2018-11-10T04:13:30.963Z,10.15
2018-11-10T04:14:41.278Z,11.08
2018-11-10T04:15:51.182Z,11.10
2018-11-10T04:17:04.685Z,10.82
2018-11-10T04:18:14.639Z,10.48
2018-11-10T04:19:24.734Z,10.50
2018-11-10T04:20:34.554Z,10.85
2018-11-10T04:21:44.457Z,10.20
2018-11-10T04:22:57.794Z,10.43
2018-11-10T04:24:07.893Z,9.13
2018-11-10T04:25:17.723Z,10.82
2018-11-10T04:26:27.655Z,11.75
2018-11-10T04:27:37.608Z,11.48
2018-11-10T04:28:47.303Z,11.55
2018-11-10T04:29:57.075Z,10.10
2018-11-10T04:31:06.846Z,9.68
2018-11-10T04:32:16.814Z,9.65
2018-11-10T04:33:26.654Z,11.28
2018-11-10T04:34:36.599Z,9.48
2018-11-10T04:35:46.167Z,8.95
2018-11-10T04:36:56.276Z,9.15
2018-11-10T04:38:06.210Z,10.63
2018-11-10T04:39:16.023Z,10.72
2018-11-10T04:40:25.847Z,11.22
2018-11-10T04:41:35.753Z,11.43
2018-11-10T04:42:45.455Z,10.90
2018-11-10T04:43:55.212Z,8.78
2018-11-10T04:45:05.723Z,9.55
2018-11-10T04:46:16.178Z,9.88
2018-11-10T04:47:26.208Z,8.70
2018-11-10T04:48:36.239Z,9.28
2018-11-10T04:49:46.204Z,10.05
2018-11-10T04:50:56.208Z,9.85
2018-11-10T04:52:06.124Z,9.75
2018-11-10T04:53:16.199Z,9.40
2018-11-10T04:54:25.984Z,9.93
2018-11-10T04:55:35.801Z,9.53
2018-11-10T04:56:45.764Z,10.75
2018-11-10T04:57:55.612Z,11.78
2018-11-10T04:59:05.466Z,10.35
2018-11-10T05:00:15.981Z,9.93
2018-11-10T05:01:25.814Z,9.73
2018-11-10T05:02:35.918Z,10.03
2018-11-10T05:03:46.014Z,9.70
2018-11-10T05:04:56.117Z,10.18
2018-11-10T05:06:05.927Z,8.70
2018-11-10T05:07:15.563Z,9.00
2018-11-10T05:08:25.589Z,8.83
2018-11-10T05:09:35.728Z,9.10
2018-11-10T05:10:45.695Z,8.83
2018-11-10T05:11:55.892Z,8.20
2018-11-10T05:13:05.884Z,9.10
2018-11-10T05:14:16.139Z,8.50
2018-11-10T05:15:25.847Z,8.55
2018-11-10T05:16:35.756Z,8.20
2018-11-10T05:17:45.486Z,9.58
2018-11-10T05:18:55.608Z,10.85
2018-11-10T05:20:06.107Z,8.55
2018-11-10T05:21:16.138Z,9.35
2018-11-10T05:22:26.134Z,8.18
2018-11-10T05:23:36.313Z,9.43
2018-11-10T05:24:46.189Z,9.90
2018-11-10T05:25:55.897Z,9.98
2018-11-10T05:27:19.947Z,9.08
2018-11-10T05:28:29.644Z,9.18
2018-11-10T05:29:39.700Z,10.65
2018-11-10T05:30:49.731Z,8.73
2018-11-10T05:31:59.781Z,9.58
2018-11-10T05:33:15.067Z,9.83
2018-11-10T05:34:24.796Z,9.85
2018-11-10T05:35:34.564Z,10.68
2018-11-10T05:36:44.652Z,9.90
2018-11-10T05:37:54.526Z,10.28
2018-11-10T05:39:05.476Z,7.42
2018-11-10T05:40:15.626Z,8.25
2018-11-10T05:41:25.537Z,8.60
2018-11-10T05:42:35.597Z,7.97
2018-11-10T05:43:45.452Z,7.95
2018-11-10T05:44:55.576Z,8.83
2018-11-10T05:46:05.666Z,8.78
2018-11-10T05:47:15.218Z,8.35
2018-11-10T05:48:25.151Z,8.78
2018-11-10T05:49:34.993Z,8.33
2018-11-10T05:50:44.837Z,8.25
2018-11-10T05:51:54.634Z,9.00
2018-11-10T05:53:04.419Z,9.18
2018-11-10T05:54:14.386Z,9.13
2018-11-10T05:55:24.233Z,8.15
2018-11-10T05:56:34.017Z,7.53
2018-11-10T05:57:43.993Z,7.17
2018-11-10T05:58:53.785Z,8.45
2018-11-10T06:00:03.842Z,9.25
2018-11-10T06:01:13.742Z,8.98
2018-11-10T06:02:23.625Z,8.15
2018-11-10T06:03:33.506Z,8.50
2018-11-10T06:04:43.455Z,8.58
2018-11-10T06:05:53.323Z,9.38
2018-11-10T06:07:03.077Z,8.50
2018-11-10T06:08:12.995Z,9.10
2018-11-10T06:09:23.243Z,10.15
2018-11-10T06:10:33.306Z,8.33
2018-11-10T06:11:43.294Z,8.25
2018-11-10T06:12:53.375Z,9.70
2018-11-10T06:14:03.180Z,8.78
2018-11-10T06:15:13.086Z,9.25
2018-11-10T06:16:23.188Z,10.48
2018-11-10T06:17:33.165Z,8.73
2018-11-10T06:18:43.259Z,9.15
2018-11-10T06:19:53.116Z,8.95
2018-11-10T06:21:03.049Z,8.38
2018-11-10T06:22:13.149Z,9.68
2018-11-10T06:23:23.196Z,9.18
2018-11-10T06:24:33.177Z,7.85
2018-11-10T06:25:43.325Z,8.28
2018-11-10T06:26:53.257Z,8.23
2018-11-10T06:28:02.898Z,9.08
2018-11-10T06:29:12.887Z,7.53
2018-11-10T06:30:22.956Z,8.48
2018-11-10T06:31:32.782Z,7.62
2018-11-10T06:32:46.270Z,8.90
2018-11-10T06:33:56.287Z,8.73
2018-11-10T06:35:06.316Z,8.03
2018-11-10T06:36:16.496Z,8.75
2018-11-10T06:37:32.108Z,9.25
2018-11-10T06:38:41.874Z,8.85
2018-11-10T06:39:51.857Z,7.55
2018-11-10T06:41:01.907Z,9.05
2018-11-10T06:42:11.936Z,8.85
2018-11-10T06:43:22.076Z,8.93
2018-11-10T06:44:32.119Z,8.28
2018-11-10T06:45:42.128Z,8.65
2018-11-10T06:46:52.120Z,8.70
2018-11-10T06:48:02.097Z,8.45
2018-11-10T06:49:11.839Z,8.88
2018-11-10T06:50:21.707Z,9.25
2018-11-10T06:51:31.964Z,9.40
2018-11-10T06:52:42.007Z,9.23
2018-11-10T06:53:52.026Z,9.08
2018-11-10T06:55:02.159Z,7.67
2018-11-10T06:56:12.120Z,8.20
2018-11-10T06:57:21.871Z,8.55
2018-11-10T06:58:32.004Z,8.08
2018-11-10T06:59:42.157Z,7.10
2018-11-10T07:00:51.874Z,9.20
2018-11-10T07:02:01.781Z,8.80
2018-11-10T07:03:11.840Z,8.25
2018-11-10T07:04:21.656Z,9.03
2018-11-10T07:05:31.377Z,8.63
2018-11-10T07:06:41.173Z,9.58
2018-11-10T07:07:51.216Z,8.75
2018-11-10T07:09:01.163Z,10.05
2018-11-10T07:10:11.420Z,9.70
2018-11-10T07:11:21.373Z,8.63
2018-11-10T07:12:31.518Z,8.95
2018-11-10T07:13:41.567Z,9.00
2018-11-10T07:14:51.519Z,9.68
2018-11-10T07:16:01.437Z,8.08
2018-11-10T07:17:11.549Z,8.38
2018-11-10T07:18:21.598Z,10.05
2018-11-10T07:19:31.397Z,9.20
2018-11-10T07:20:41.351Z,8.70
2018-11-10T07:21:51.419Z,9.13
2018-11-10T07:23:01.591Z,8.75
2018-11-10T07:24:11.710Z,8.45
2018-11-10T07:25:21.757Z,9.40
2018-11-10T07:26:31.941Z,7.87
2018-11-10T07:27:42.056Z,9.25
2018-11-10T07:28:52.007Z,8.30
2018-11-10T07:30:02.958Z,10.08
2018-11-10T07:31:12.883Z,8.50
2018-11-10T07:32:23.257Z,9.53
2018-11-10T07:33:34.069Z,8.38
2018-11-10T07:34:43.921Z,8.80
2018-11-10T07:35:53.947Z,7.30
2018-11-10T07:37:04.326Z,8.55
2018-11-10T07:38:15.066Z,8.10
2018-11-10T07:39:25.564Z,8.28
2018-11-10T07:40:35.744Z,8.43
2018-11-10T07:41:47.255Z,10.15
2018-11-10T07:42:58.879Z,9.00
2018-11-10T07:44:08.537Z,10.45
2018-11-10T07:45:18.342Z,8.20
2018-11-10T07:46:28.450Z,8.55
2018-11-10T07:47:38.525Z,8.98
2018-11-10T07:48:48.398Z,7.95
2018-11-10T07:49:58.316Z,9.03
2018-11-10T07:51:08.230Z,10.72
2018-11-10T07:52:18.212Z,9.00
2018-11-10T07:53:28.429Z,9.75
2018-11-10T07:54:38.337Z,8.05
2018-11-10T07:55:48.371Z,9.10
2018-11-10T07:56:58.243Z,7.33
2018-11-10T07:58:08.085Z,8.13
2018-11-10T07:59:18.113Z,8.18
2018-11-10T08:00:28.098Z,7.85
2018-11-10T08:01:37.836Z,8.05
2018-11-10T08:02:47.793Z,6.95
2018-11-10T08:03:57.603Z,8.80
2018-11-10T08:05:08.377Z,8.23
2018-11-10T08:06:18.254Z,7.90
2018-11-10T08:07:27.868Z,9.68
2018-11-10T08:08:38.236Z,8.38
2018-11-10T08:09:48.236Z,8.58
2018-11-10T08:10:58.456Z,6.87
2018-11-10T08:12:08.428Z,8.80
2018-11-10T08:13:18.347Z,7.87
2018-11-10T08:14:28.531Z,8.33
2018-11-10T08:15:38.454Z,8.13
2018-11-10T08:16:48.015Z,8.43
2018-11-10T08:17:57.739Z,8.80
2018-11-10T08:19:08.054Z,9.93
2018-11-10T08:20:18.053Z,8.23
2018-11-10T08:21:27.776Z,9.35
2018-11-10T08:22:37.663Z,8.03
2018-11-10T08:23:47.497Z,8.80
2018-11-10T08:24:57.382Z,9.20
2018-11-10T08:26:07.591Z,8.93
2018-11-10T08:27:17.485Z,8.83
2018-11-10T08:28:27.676Z,8.73
2018-11-10T08:29:37.453Z,8.35
2018-11-10T08:30:47.324Z,8.05
2018-11-10T08:31:57.234Z,7.70
2018-11-10T08:33:06.879Z,7.75
2018-11-10T08:34:16.493Z,7.60
2018-11-10T08:35:26.218Z,7.10
2018-11-10T08:36:35.749Z,7.33
2018-11-10T08:37:45.916Z,7.50
2018-11-10T08:38:55.594Z,8.35
2018-11-10T08:40:06.228Z,7.70
2018-11-10T08:41:16.155Z,7.10
2018-11-10T08:42:26.075Z,8.40
2018-11-10T08:43:35.845Z,7.42
2018-11-10T08:44:45.739Z,6.50
2018-11-10T08:45:55.797Z,6.55
2018-11-10T08:47:06.310Z,7.85
2018-11-10T08:48:16.079Z,6.67
2018-11-10T08:49:26.091Z,7.10
2018-11-10T08:50:35.989Z,7.35
2018-11-10T08:51:46.196Z,8.13
2018-11-10T08:52:55.955Z,8.03
2018-11-10T08:54:06.291Z,6.80
2018-11-10T08:55:16.278Z,6.45
2018-11-10T08:56:26.192Z,7.78
2018-11-10T08:57:36.031Z,8.13
2018-11-10T08:58:45.843Z,7.15
2018-11-10T08:59:56.004Z,7.65
2018-11-10T09:01:05.929Z,7.30
2018-11-10T09:02:15.941Z,8.08
2018-11-10T09:03:25.737Z,8.00
2018-11-10T09:04:35.422Z,8.88
2018-11-10T09:05:45.458Z,7.42
2018-11-10T09:06:56.898Z,7.75
2018-11-10T09:08:06.849Z,7.70
2018-11-10T09:09:16.820Z,7.58
2018-11-10T09:10:26.790Z,6.78
2018-11-10T09:11:36.556Z,8.00
2018-11-10T09:12:46.167Z,7.03
2018-11-10T09:13:56.148Z,8.33
2018-11-10T09:15:08.064Z,7.75
2018-11-10T09:16:18.082Z,8.05
2018-11-10T09:17:28.311Z,8.90
2018-11-10T09:18:38.065Z,7.12
2018-11-10T09:19:47.885Z,7.20
2018-11-10T09:20:57.725Z,7.65
2018-11-10T09:22:08.092Z,7.40
2018-11-10T09:23:18.360Z,7.47
2018-11-10T09:24:28.054Z,6.40
2018-11-10T09:25:37.810Z,7.47
2018-11-10T09:26:47.934Z,7.58
2018-11-10T09:27:57.806Z,8.48
2018-11-10T09:29:08.236Z,7.67
2018-11-10T09:30:18.184Z,8.00
2018-11-10T09:31:28.217Z,7.45
2018-11-10T09:32:38.301Z,7.53
2018-11-10T09:33:48.172Z,8.43
2018-11-10T09:34:58.427Z,7.87
2018-11-10T09:36:08.393Z,7.00
2018-11-10T09:37:18.229Z,7.95
2018-11-10T09:38:33.548Z,7.92
2018-11-10T09:39:43.382Z,7.65
2018-11-10T09:40:53.239Z,8.15
2018-11-10T09:42:03.249Z,8.00
2018-11-10T09:43:13.157Z,8.25
2018-11-10T09:44:22.910Z,8.93
2018-11-10T09:45:32.844Z,8.40
2018-11-10T09:46:42.672Z,8.78
2018-11-10T09:47:52.628Z,9.55
2018-11-10T09:49:02.428Z,7.37
2018-11-10T09:50:15.491Z,7.33
2018-11-10T09:51:25.597Z,8.40
2018-11-10T09:52:35.450Z,8.10
2018-11-10T09:53:45.283Z,8.38
2018-11-10T09:54:58.252Z,7.85
2018-11-10T09:56:10.880Z,8.18
2018-11-10T09:57:21.423Z,8.25
2018-11-10T09:58:31.095Z,8.48
2018-11-10T09:59:40.979Z,8.23
2018-11-10T10:00:50.673Z,7.85
2018-11-10T10:02:01.292Z,7.47
2018-11-10T10:03:11.165Z,7.30
2018-11-10T10:04:21.070Z,8.03
2018-11-10T10:05:31.196Z,8.38
2018-11-10T10:06:41.559Z,9.78
2018-11-10T10:07:51.682Z,7.75
2018-11-10T10:09:01.684Z,8.35
2018-11-10T10:10:13.554Z,8.58
2018-11-10T10:11:23.637Z,7.65
2018-11-10T10:12:34.231Z,8.45
2018-11-10T10:13:44.447Z,8.95
2018-11-10T10:14:55.204Z,8.20
2018-11-10T10:16:05.671Z,8.60
2018-11-10T10:17:15.746Z,7.75
2018-11-10T10:18:25.753Z,7.92
2018-11-10T10:19:35.483Z,9.05
2018-11-10T10:20:45.432Z,7.25
2018-11-10T10:21:55.454Z,8.78
2018-11-10T10:23:05.578Z,8.25
2018-11-10T10:24:15.582Z,8.70
2018-11-10T10:25:25.459Z,8.75
2018-11-10T10:26:35.475Z,9.45
2018-11-10T10:27:46.309Z,8.35
2018-11-10T10:28:56.235Z,8.60
2018-11-10T10:30:12.966Z,8.65
2018-11-10T10:31:22.707Z,8.33
2018-11-10T10:32:32.640Z,8.43
2018-11-10T10:33:42.720Z,8.03
2018-11-10T10:34:52.545Z,7.62
2018-11-10T10:36:02.580Z,8.20
2018-11-10T10:37:12.728Z,8.98
2018-11-10T10:38:22.521Z,8.68
2018-11-10T10:39:32.624Z,8.33
2018-11-10T10:40:42.788Z,8.85
2018-11-10T10:41:52.558Z,8.68
2018-11-10T10:43:05.555Z,9.30
2018-11-10T10:44:15.289Z,8.90
2018-11-10T10:45:25.174Z,9.68
2018-11-10T10:46:35.058Z,8.58
2018-11-10T10:47:50.332Z,8.85
2018-11-10T10:49:00.478Z,7.62
2018-11-10T10:50:12.077Z,8.90
2018-11-10T10:51:21.808Z,10.35
2018-11-10T10:52:31.538Z,8.93
2018-11-10T10:53:41.420Z,8.15
2018-11-10T10:54:51.269Z,8.83
2018-11-10T10:56:01.286Z,9.20
2018-11-10T10:57:11.430Z,9.40
2018-11-10T10:58:21.411Z,10.32
2018-11-10T10:59:31.582Z,8.63
2018-11-10T11:00:46.888Z,8.05
2018-11-10T11:02:01.990Z,8.25
2018-11-10T11:03:17.296Z,9.08
2018-11-10T11:04:32.645Z,8.40
2018-11-10T11:05:44.106Z,8.13
2018-11-10T11:06:54.146Z,9.08
2018-11-10T11:08:04.064Z,9.13
2018-11-10T11:09:13.941Z,9.45
2018-11-10T11:10:24.037Z,8.30
2018-11-10T11:11:33.897Z,8.63
2018-11-10T11:12:43.973Z,8.45
2018-11-10T11:13:53.821Z,8.75
2018-11-10T11:15:03.733Z,8.45
2018-11-10T11:16:13.779Z,8.70
2018-11-10T11:17:23.705Z,8.98
2018-11-10T11:18:33.651Z,9.30
2018-11-10T11:19:43.718Z,9.88
2018-11-10T11:20:53.812Z,10.23
2018-11-10T11:22:04.131Z,9.83
2018-11-10T11:23:14.206Z,8.13
2018-11-10T11:24:24.452Z,7.45
2018-11-10T11:25:34.524Z,8.10
2018-11-10T11:26:44.460Z,8.60
2018-11-10T11:27:54.415Z,8.95
2018-11-10T11:29:04.520Z,9.60
2018-11-10T11:30:14.580Z,10.05
2018-11-10T11:31:24.669Z,9.63
2018-11-10T11:32:34.695Z,9.20
2018-11-10T11:33:44.538Z,9.70
2018-11-10T11:34:54.515Z,9.98
2018-11-10T11:36:04.545Z,8.08
2018-11-10T11:37:14.666Z,8.70
2018-11-10T11:38:24.347Z,8.88
2018-11-10T11:39:34.302Z,8.75
2018-11-10T11:40:44.346Z,9.70
2018-11-10T11:41:54.405Z,9.40
2018-11-10T11:43:04.776Z,8.45
2018-11-10T11:44:15.006Z,8.55
2018-11-10T11:45:24.926Z,9.50
2018-11-10T11:46:34.787Z,10.00
2018-11-10T11:47:51.506Z,10.48
2018-11-10T11:49:01.321Z,9.08
2018-11-10T11:50:12.391Z,9.35
2018-11-10T11:51:22.238Z,9.95
2018-11-10T11:52:32.395Z,9.13
2018-11-10T11:53:42.299Z,10.63
2018-11-10T11:54:52.339Z,9.50
2018-11-10T11:56:02.637Z,8.80
2018-11-10T11:57:12.642Z,10.23
2018-11-10T11:58:22.790Z,9.05
2018-11-10T11:59:32.583Z,8.85
2018-11-10T12:00:42.492Z,9.35
2018-11-10T12:01:52.632Z,8.40
2018-11-10T12:03:02.842Z,8.95
2018-11-10T12:04:12.810Z,9.70
2018-11-10T12:05:22.559Z,8.83
2018-11-10T12:06:32.497Z,9.90
2018-11-10T12:07:42.481Z,9.05
2018-11-10T12:08:52.466Z,9.53
2018-11-10T12:10:02.534Z,9.48
2018-11-10T12:11:12.494Z,9.63
2018-11-10T12:12:22.384Z,9.33
2018-11-10T12:13:32.112Z,9.83
2018-11-10T12:14:41.919Z,10.55
2018-11-10T12:15:51.793Z,9.95
2018-11-10T12:17:01.954Z,7.78
2018-11-10T12:18:11.832Z,9.98
2018-11-10T12:19:21.675Z,10.18
2018-11-10T12:20:31.845Z,9.63
2018-11-10T12:21:41.518Z,8.55
2018-11-10T12:22:51.562Z,9.08
2018-11-10T12:24:01.383Z,9.03
2018-11-10T12:25:12.249Z,8.50
2018-11-10T12:26:22.207Z,8.40
2018-11-10T12:27:32.177Z,8.38
2018-11-10T12:28:42.179Z,8.65
2018-11-10T12:29:52.045Z,8.45
2018-11-10T12:31:02.046Z,7.92
2018-11-10T12:32:11.876Z,8.33
2018-11-10T12:33:22.526Z,8.45
2018-11-10T12:34:32.321Z,8.35
2018-11-10T12:35:42.497Z,8.60
2018-11-10T12:36:52.754Z,9.08
2018-11-10T12:38:02.474Z,12.10
2018-11-10T12:39:12.445Z,9.85
2018-11-10T12:40:22.257Z,10.60
2018-11-10T12:41:31.926Z,10.35
2018-11-10T12:42:42.172Z,9.30
2018-11-10T12:43:51.846Z,9.78
2018-11-10T12:45:01.837Z,9.05
2018-11-10T12:46:11.716Z,8.88
2018-11-10T12:47:21.539Z,9.08
2018-11-10T12:48:35.171Z,11.20
2018-11-10T12:49:44.782Z,10.00
2018-11-10T12:50:54.638Z,9.03
2018-11-10T12:52:04.291Z,7.78
2018-11-10T12:53:14.026Z,8.35
2018-11-10T12:54:23.547Z,6.85
2018-11-10T12:55:33.347Z,7.92
2018-11-10T12:56:42.882Z,6.80
2018-11-10T12:57:52.755Z,7.83
2018-11-10T12:59:02.519Z,6.95
2018-11-10T13:00:13.461Z,8.03
2018-11-10T13:01:23.013Z,8.13
2018-11-10T13:02:32.604Z,7.85
2018-11-10T13:03:42.487Z,8.95
2018-11-10T13:04:52.368Z,7.05
2018-11-10T13:06:02.342Z,7.50
2018-11-10T13:07:12.387Z,7.92
2018-11-10T13:08:22.379Z,8.58
2018-11-10T13:09:32.156Z,8.15
2018-11-10T13:10:41.994Z,7.12
2018-11-10T13:11:51.942Z,7.28
2018-11-10T13:13:01.788Z,7.62
2018-11-10T13:14:12.004Z,7.95
2018-11-10T13:15:21.651Z,7.30
2018-11-10T13:16:31.486Z,7.50
2018-11-10T13:17:41.152Z,7.17
2018-11-10T13:18:50.835Z,7.28
2018-11-10T13:20:00.547Z,8.53
2018-11-10T13:21:10.323Z,8.55
2018-11-10T13:22:20.104Z,6.78
2018-11-10T13:23:30.012Z,7.55
2018-11-10T13:24:40.188Z,7.90
2018-11-10T13:25:50.256Z,6.87
2018-11-10T13:27:00.371Z,7.67
2018-11-10T13:28:10.186Z,6.40
2018-11-10T13:29:19.858Z,7.22
2018-11-10T13:30:29.523Z,7.08
2018-11-10T13:31:39.639Z,8.25
2018-11-10T13:32:49.342Z,7.75
2018-11-10T13:33:59.027Z,7.53
2018-11-10T13:35:09.743Z,7.22
2018-11-10T13:36:19.612Z,7.45
2018-11-10T13:37:29.691Z,6.53
2018-11-10T13:38:39.501Z,9.38
2018-11-10T13:39:49.014Z,7.72
2018-11-10T13:40:58.971Z,8.58
2018-11-10T13:42:08.908Z,7.65
2018-11-10T13:43:18.838Z,8.58
2018-11-10T13:44:28.976Z,8.53
2018-11-10T13:45:38.654Z,8.68
2018-11-10T13:46:48.598Z,8.45
2018-11-10T13:47:58.558Z,9.75
2018-11-10T13:49:08.529Z,9.08
2018-11-10T13:50:18.264Z,9.35
2018-11-10T13:51:28.955Z,9.10
2018-11-10T13:52:39.542Z,9.68
2018-11-10T13:53:49.824Z,9.43
2018-11-10T13:54:59.594Z,8.88
2018-11-10T13:56:09.916Z,10.90
2018-11-10T13:57:19.671Z,10.32
2018-11-10T13:58:29.637Z,8.95
2018-11-10T13:59:40.377Z,10.10
2018-11-10T14:00:50.135Z,10.45
2018-11-10T14:01:59.897Z,10.10
2018-11-10T14:03:09.604Z,10.45
2018-11-10T14:04:19.433Z,12.13
2018-11-10T14:05:29.315Z,11.50
2018-11-10T14:06:39.128Z,10.72
2018-11-10T14:07:48.946Z,11.40
2018-11-10T14:08:58.718Z,11.40
2018-11-10T14:10:10.027Z,11.15
2018-11-10T14:11:19.775Z,11.88
2018-11-10T14:12:29.296Z,11.78
2018-11-10T14:13:39.076Z,11.20
2018-11-10T14:14:48.691Z,11.90
2018-11-10T14:15:58.583Z,12.93
2018-11-10T14:17:08.513Z,12.18
2018-11-10T14:18:18.508Z,13.70
2018-11-10T14:19:28.207Z,13.58
2018-11-10T14:20:37.810Z,14.73
2018-11-10T14:21:47.687Z,15.55
2018-11-10T14:22:57.495Z,15.55
2018-11-10T14:24:14.159Z,13.22
2018-11-10T14:25:23.917Z,14.35
2018-11-10T14:26:33.612Z,14.98
2018-11-10T14:27:43.759Z,14.05
2018-11-10T14:28:53.626Z,13.70
2018-11-10T14:30:03.160Z,15.05
2018-11-10T14:31:12.922Z,13.88
2018-11-10T14:32:22.561Z,13.88
2018-11-10T14:33:33.976Z,14.63
2018-11-10T14:34:43.667Z,14.07
2018-11-10T14:35:53.115Z,13.38
2018-11-10T14:37:03.172Z,12.78
2018-11-10T14:38:13.125Z,14.60
2018-11-10T14:39:22.929Z,14.98
2018-11-10T14:40:32.812Z,16.05
2018-11-10T14:41:42.458Z,14.80
2018-11-10T14:42:52.332Z,14.40
2018-11-10T14:44:02.167Z,16.00
2018-11-10T14:45:13.079Z,16.95
2018-11-10T14:46:22.825Z,17.57
2018-11-10T14:47:33.022Z,15.95
2018-11-10T14:48:43.053Z,15.15
2018-11-10T14:49:52.834Z,15.20
2018-11-10T14:51:02.869Z,15.10
2018-11-10T14:52:12.845Z,14.75
2018-11-10T14:53:22.665Z,16.97
2018-11-10T14:54:32.702Z,15.53
2018-11-10T14:55:42.393Z,14.95
2018-11-10T14:56:52.120Z,15.23
2018-11-10T14:58:01.922Z,16.05
2018-11-10T14:59:11.825Z,16.50
2018-11-10T15:00:28.972Z,15.40
2018-11-10T15:01:38.813Z,15.23
2018-11-10T15:02:48.580Z,16.48
2018-11-10T15:03:59.101Z,14.95
2018-11-10T15:05:09.966Z,17.75
2018-11-10T15:06:19.635Z,16.70
2018-11-10T15:07:29.416Z,15.15
2018-11-10T15:08:39.005Z,16.55
2018-11-10T15:09:49.158Z,17.32
2018-11-10T15:10:59.086Z,17.27
2018-11-10T15:12:08.680Z,16.05
2018-11-10T15:13:18.909Z,18.50
2018-11-10T15:14:28.823Z,19.52
2018-11-10T15:15:38.520Z,18.42
2018-11-10T15:16:48.389Z,17.95
2018-11-10T15:17:58.366Z,18.17
2018-11-10T15:19:08.399Z,16.45
2018-11-10T15:20:19.282Z,16.62
2018-11-10T15:21:29.342Z,17.75
2018-11-10T15:22:39.114Z,16.52
2018-11-10T15:23:48.667Z,18.23